Masbate, Philippines
Current Conditions -  °F | °C
As of 11:00 PM on Monday 24 Nov 2014 (Local Time) from RPVM Reporting Station
Scattered Clouds Scattered Clouds  
Wind Chill: 84°   Ceiling: Unl
Heat Index: 94°   Visibility: 6mi
Dew Point: 77°   Wind: 7mph
Humidity: 79%   Direction: 20°NNE
Pressure: 29.83"   Gusts: NA
Location:  12.37°N, 123.62°E
Report Text: RPVM 241500Z 02006KT 9999 SCT020 SCT300 29/25 Q1010 RMK A2983
Loading
Personal Weather Stations






























Interactive Weather Map New forecast layout! Learn more

10-Day Weather Forecast

Advertisements
Track Severe Weather on mobile